Reno (UNR), Valley Road, Nevada Weather observations

Data are for observation ending at time listed.
 Day   Time    Ave.   Ave.  Ave.  Vector   Max.    Total    Solar   Rl      Baro.   Ave.  
  of    of     Air    Rel.  Wind   Wind    Wind   Precip.   Rad.    in      Pres.   Soil  
Year   Day     Temp.  Hum.  Speed  Dir.    Gust                                     Temp. 
2016   (PST)    F      %     mph   deg.    mph      in.     W/m2    W/m2     mb.     F   
-----------------------------------------------------------------------------------------
 122   13:10   62.3    33    5.4    79      9.7     0.00     563     366    853.1   57.7
 122   13:20   61.9    33    6.3    86     12.1     0.00     620     348    852.9   57.9
 122   13:30   63.1    32    2.7   328      6.9     0.00    1033     341    852.8   58.1
 122   13:40   65.0    29    6.0   157     11.8     0.00     975     344    852.5   58.3
 122   13:50   65.1    29    4.4   154     13.9     0.00     842     343    852.3   58.5
 122   14:00   64.7    29    6.8   154     14.4     0.00     952     344    852.1   58.7
 122   14:10   65.2    26    8.3   157     13.6     0.00     930     343    851.9   58.9
 122   14:20   66.4    26    4.4   187     10.6     0.00     900     343    851.7   59.1
 122   14:30   67.8    23    5.1   136     11.4     0.00     891     347    851.5   59.3
 122   14:40   66.3    22    4.5   118     10.5     0.00     894     348    851.3   59.5
 122   14:50   68.3    23    3.7   146     10.4     0.00     937     364    851.1   59.8
 122   15:00   67.0    25    5.7    66     11.8     0.00     757     362    850.9   60.0
 122   15:10   65.0    25    5.2    74     12.2     0.00     445     342    850.7   60.3
 122   15:20   63.7    26    3.1    63      8.3     0.00     269     334    850.7   60.5
 122   15:30   66.1    25    3.9    71      8.2     0.00     669     342    850.7   60.8
 122   15:40   66.2    23    6.2   135     13.1     0.00     648     358    850.7   61.1
 122   15:50   68.0    22    2.5   142      7.1     0.00     780     369    850.6   61.3
 122   16:00   67.6    24    5.9    33     14.1     0.00     606     380    850.5   61.5
 122   16:10   65.2    27   10.0    37     14.8     0.00     454     361    850.4   61.6
 122   16:20   64.5    28    6.5    46     11.7     0.00     480     341    850.6   61.8
 122   16:30   64.8    27    4.4    69      9.4     0.00     129     333    850.7   62.0
 122   16:40   64.8    26    2.8   126      7.0     0.00     443     331    850.8   62.2
 122   16:50   66.1    26    4.5   101     10.8     0.00     436     341    850.9   62.3
 122   17:00   65.9    27    4.1    32      8.2     0.00     428     354    850.9   62.4
 122   17:10   66.1    26    4.8    60     10.7     0.00     381     362    850.9   62.5
 122   17:20   65.9    26    4.6    50      9.9     0.00     331     354    850.9   62.6
 122   17:30   65.5    27    5.9    79     10.5     0.00     274     346    850.9   62.7
 122   17:40   65.0    27    5.4    81      9.6     0.00     149     337    851.0   62.7
 122   17:50   62.7    29    7.0    56     12.1     0.00      53     329    851.2   62.8
 122   18:00   61.9    29    4.7    78      7.3     0.00      34     328    851.3   62.8
 122   18:10   62.4    29    4.5    77      9.9     0.00      95     329    851.6   62.8
 122   18:20   62.4    30    5.0    86      9.1     0.00      77     330    851.9   62.8
 122   18:30   62.0    30    6.2    81     10.8     0.00      46     329    852.1   62.8
 122   18:40   60.9    31    5.4    77     10.4     0.00      10     328    852.3   62.7
 122   18:50   60.3    32    3.4    75      6.2     0.00       6     327    852.6   62.7
 122   19:00   60.0    32    3.9    67      6.7     0.00       2     324    852.9   62.6
 122   19:10   59.6    33    3.6    60      7.6     0.00       1     322    853.1   62.5
 122   19:20   59.5    33    4.4    70      9.9     0.00       0     328    853.4   62.4
 122   19:30   59.2    36    7.2    75     14.4     0.00       0     332    853.7   62.3
 122   19:40   58.7    39    5.7    85     14.3     0.00       0     348    853.9   62.2
 122   19:50   58.9    39    6.1    97     10.3     0.00       0     354    854.2   62.1
 122   20:00   59.1    38    4.9   103      9.9     0.00       0     361    854.4   61.9
 122   20:10   58.8    39    2.3    96      5.7     0.00       0     346    854.7   61.8
 122   20:20   58.4    40    2.0    76      4.2     0.00       0     335    855.0   61.7
 122   20:30   57.9    41    3.4    90      5.3     0.00       0     340    855.2   61.6
 122   20:40   57.8    42    2.2    85      4.5     0.00       0     340    855.4   61.4
 122   20:50   57.6    43    1.6    79      3.0     0.00       0     339    855.5   61.3
 122   21:00   57.3    43    2.4   100      6.2     0.00       0     331    855.5   61.2
 122   21:10   57.2    43    3.4   120      5.6     0.00       0     328    855.6   61.1
 122   21:20   56.8    45    4.4   154      6.8     0.00       0     328    855.7   60.9
 122   21:30   56.2    47    4.2   158      6.7     0.00       0     322    855.7   60.8
 122   21:40   55.5    49    3.6   158      6.0     0.00       0     317    855.8   60.7
 122   21:50   54.9    51    3.2   132      6.7     0.00       0     320    855.9   60.6
 122   22:00   54.2    53    3.5   135      5.8     0.00       0     317    855.9   60.5
 122   22:10   54.0    55    4.5   149      7.1     0.00       0     311    856.1   60.3
 122   22:20   53.6    56    2.3   135      5.9     0.00       0     306    856.2   60.2
 122   22:30   53.1    58    2.4   138      5.9     0.00       0     300    856.3   60.1
 122   22:40   51.9    60    1.2   335      2.7     0.00       0     302    856.5   60.0
 122   22:50   50.4    64    1.0   338      2.9     0.00       0     298    856.6   59.8
 122   23:00   49.6    66    2.1   204      4.2     0.00       0     294    856.8   59.7
 122   23:10   50.5    64    1.2   138      2.9     0.00       0     295    856.9   59.6
 122   23:20   50.6    64    2.5   132      4.6     0.00       0     295    857.1   59.5
 122   23:30   50.5    64    2.7   141      4.8     0.00       0     296    857.2   59.3
 122   23:40   50.5    64    3.2   163      4.7     0.00       0     297    857.2   59.2
 122   23:50   49.9    66    3.6   249      5.4     0.00       0     298    857.3   59.1
 123    0:00   48.5    69    1.3   314      2.9     0.00       0     293    857.4   58.9
 123    0:10   47.0    73    0.9   355      2.5     0.00       0     288    857.5   58.8
 123    0:20   46.3    76    1.9   332      2.5     0.00       0     291    857.6   58.7
 123    0:30   45.2    78    1.3   276      2.7     0.00       0     290    857.6   58.5
 123    0:40   45.5    77    1.8   270      2.7     0.00       0     290    857.8   58.4
 123    0:50   45.4    78    1.5   312      2.7     0.00       0     290    857.8   58.3
 123    1:00   44.5    80    0.1   285      1.3     0.00       0     286    858.0   58.2
 123    1:10   43.8    82    0.7   298      1.7     0.00       0     284    858.1   58.0
 123    1:20   43.6    83    1.1   321      2.6     0.00       0     282    858.2   57.9
 123    1:30   43.5    84    1.6   322      2.5     0.00       0     283    858.3   57.8
 123    1:40   43.3    83    0.0     0      0.0     0.00       0     282    858.4   57.6
 123    1:50   42.9    83    0.3   257      1.5     0.00       0     281    858.5   57.5
 123    2:00   42.3    85    1.0   320      2.5     0.00       0     280    858.6   57.4
 123    2:10   42.5    85    1.4   308      2.6     0.00       0     278    858.7   57.2
 123    2:20   42.1    85    1.1   321      2.6     0.00       0     278    858.8   57.1
 123    2:30   42.0    86    1.8   325      2.3     0.00       0     278    858.8   57.0
 123    2:40   41.7    85    1.3   321      2.3     0.00       0     278    858.9   56.8
 123    2:50   41.2    86    0.3   314      1.4     0.00       0     277    858.9   56.7
 123    3:00   41.0    86    0.1   293      1.2     0.00       0     280    859.0   56.6
 123    3:10   41.0    86    1.2   281      1.9     0.00       0     277    859.2   56.4
 123    3:20   41.1    86    1.7   316      2.9     0.00       0     274    859.2   56.3
 123    3:30   40.8    87    1.3   326      2.6     0.00       0     274    859.3   56.2
 123    3:40   40.9    86    1.7   314      3.0     0.00       0     276    859.4   56.1
 123    3:50   40.4    86    0.2   276      1.4     0.00       0     278    859.4   56.0
 123    4:00   39.8    87    0.0     0      0.0     0.00       0     279    859.5   55.8
 123    4:10   39.8    89    1.2   298      2.5     0.00       0     278    859.5   55.7
 123    4:20   39.6    89    1.4   334      2.7     0.00       0     277    859.6   55.6
 123    4:30   39.3    90    1.3   324      2.4     0.00       0     278    859.7   55.5
 123    4:40   39.2    90    0.9   288      1.7     0.00       0     278    859.8   55.3
 123    4:50   39.2    90    1.4   323      2.8     0.00       1     278    859.9   55.2
 123    5:00   39.1    90    0.7   316      2.0     0.00       4     278    860.0   55.1
 123    5:10   39.0    90    1.9   318      2.5     0.00       8     278    860.1   55.0
 123    5:20   39.4    90    1.8   331      2.6     0.00      22     273    860.2   54.9
 123    5:30   41.4    87    0.2   332      1.6     0.00      42     275    860.2   54.8
 123    5:40   43.9    80    1.5   168      3.4     0.00      70     275    860.4   54.6
 123    5:50   45.9    74    1.5   175      3.3     0.00     104     278    860.3   54.5
 123    6:00   47.0    71    1.2   331      1.9     0.00     134     282    860.2   54.4
 123    6:10   46.9    73    1.6   350      2.6     0.00     166     283    860.0   54.3
 123    6:20   47.7    71    1.5   349      2.6     0.00     198     288    859.8   54.2
 123    6:30   48.0    70    2.2   330      4.0     0.00     231     288    859.7   54.1
 123    6:40   49.0    68    1.6   350      2.6     0.00     266     291    859.6   54.0
 123    6:50   51.2    64    1.1   356      2.3     0.00     301     294    859.5   54.0
 123    7:00   53.2    58    1.0   139      3.1     0.00     334     300    859.3   54.0
 123    7:10   53.6    57    2.5   148      4.6     0.00     369     304    859.2   54.0
 123    7:20   53.1    56    2.3   161      4.9     0.00     404     304    859.2   54.0
 123    7:30   55.5    52    1.6   150      3.5     0.00     439     305    859.1   54.0
 123    7:40   55.9    51    1.7   210      3.6     0.00     473     308    859.0   54.1
 123    7:50   57.7    49    1.4   128      3.5     0.00     507     312    858.9   54.1
 123    8:00   58.4    47    0.9   169      3.3     0.00     541     314    858.8   54.2
 123    8:10   58.1    48    1.8    55      4.7     0.00     574     319    858.6   54.4
 123    8:20   57.0    49    3.1    94      5.8     0.00     606     321    858.4   54.5
 123    8:30   58.0    46    2.4   144      5.4     0.00     638     320    858.2   54.7
 123    8:40   59.6    44    2.6   122      5.7     0.00     671     322    858.0   54.8
 123    8:50   59.6    43    2.7   101      6.7     0.00     701     325    857.8   55.0
 123    9:00   60.2    42    2.1   128      6.3     0.00     729     326    857.7   55.2
 123    9:10   61.6    40    2.7   100      5.7     0.00     757     330    857.5   55.4
 123    9:20   61.3    41    2.8    97      5.6     0.00     784     333    857.4   55.5
 123    9:30   61.8    40    3.6    91      7.8     0.00     809     335    857.1   55.7
 123    9:40   62.0    40    2.7    94      6.2     0.00     830     335    857.0   55.7
 123    9:50   64.0    37    4.0   173      7.2     0.00     855     338    856.8   55.8
 123   10:00   64.4    36    3.4   172      7.2     0.00     875     338    856.7   55.9
 123   10:10   65.0    36    2.7   222      6.7     0.00     895     337    856.5   56.0
 123   10:20   65.7    36    4.3   172     10.1     0.00     914     340    856.3   56.1
 123   10:30   65.0    36    4.1    79      8.5     0.00     929     346    856.3   56.2
 123   10:40   64.9    35    2.9    83      7.6     0.00     952     345    856.2   56.4
 123   10:50   65.9    34    2.8    54      7.5     0.00     976     348    856.1   56.7
 123   11:00   67.1    34    5.5   178     13.2     0.00     996     351    855.9   57.0
 123   11:10   67.5    31    4.8   174     10.9     0.00    1022     350    855.7   57.3
 123   11:20   66.7    33    5.1   220     13.2     0.00    1038     354    855.4   57.7
 123   11:30   67.0    31    5.3   183     12.4     0.00    1069     357    855.2   58.1
 123   11:40   67.7    31    5.2   115     11.4     0.00    1042     357    855.0   58.5
 123   11:50   67.5    30    4.0    97      9.9     0.00    1001     357    854.8   59.0
 123   12:00   67.4    31    4.0    73     10.1     0.00    1001     361    854.6   59.4
 123   12:10   67.0    31    5.5   110     16.2     0.00     416     361    854.5   59.8
 123   12:20   67.0    30    4.0    86     13.8     0.00     546     364    854.4   60.3
 123   12:30   65.4    31    5.6    25      9.6     0.00     424     362    854.4   60.7
 123   12:40   67.4    30    7.3    55     13.3     0.00     611     368    854.3   61.1
 123   12:50   66.2    30    5.3   141     12.8     0.00     246     370    854.3   61.5
 123   13:00   66.3    30    5.4    81     11.3     0.00     387     377    854.4   61.8

Return to Reno (UNR), Nevada graphs page.


Western Regional Climate Center,wrcc@dri.edu